Time;durP1;ratioP1;P1;durP2;ratioP2;P2;SDS_P1;SDS_P2;PMS_P1;PMS_P2;Temp;Humidity;BMP_temperature;BMP_pressure;BME280_temperature;BME280_humidity;BME280_pressure;Samples;Min_cycle;Max_cycle;Signal;HPM_P1;HPM_P2
2021/09/15 04:00:42;;;;;;;9.93;9.10;;;16.30;99.90;;;;;;5805805;23;20583;-68
2021/09/15 04:03:09;;;;;;;11.20;9.50;;;16.30;99.90;;;;;;4973228;28;20535;-68
2021/09/15 04:05:36;;;;;;;11.63;10.17;;;16.30;99.90;;;;;;4971141;28;20475;-68
2021/09/15 04:08:02;;;;;;;10.37;9.30;;;16.30;99.90;;;;;;4954151;28;20464;-68
2021/09/15 04:10:29;;;;;;;12.57;11.47;;;16.30;99.90;;;;;;4953622;28;20476;-70
2021/09/15 04:12:56;;;;;;;11.00;10.07;;;16.30;99.90;;;;;;4954349;28;20472;-68
2021/09/15 04:15:23;;;;;;;9.83;9.13;;;16.30;99.90;;;;;;4954528;28;20480;-68
2021/09/15 04:17:50;;;;;;;11.17;10.20;;;16.30;99.90;;;;;;4964394;28;20524;-67
2021/09/15 04:20:17;;;;;;;11.97;10.97;;;16.30;99.90;;;;;;4960152;28;20501;-68
2021/09/15 04:22:45;;;;;;;9.13;8.50;;;16.30;99.90;;;;;;4956267;28;20464;-68
2021/09/15 04:33:25;;;;;;;11.07;10.07;;;16.20;99.90;;;;;;4953637;28;20558;-69
2021/09/15 04:35:52;;;;;;;11.60;10.57;;;16.20;99.90;;;;;;4961492;28;20499;-69
2021/09/15 04:38:18;;;;;;;10.20;9.50;;;16.20;99.90;;;;;;4954059;28;20933;-68
2021/09/15 04:40:45;;;;;;;10.37;9.37;;;16.20;99.90;;;;;;4954151;28;20520;-68
2021/09/15 04:43:12;;;;;;;11.93;10.83;;;16.20;99.90;;;;;;4953358;28;20925;-68
2021/09/15 04:45:39;;;;;;;12.13;11.10;;;16.20;99.90;;;;;;4968554;28;20960;-71
2021/09/15 04:48:05;;;;;;;11.73;10.67;;;16.20;99.90;;;;;;4973080;28;20553;-68
2021/09/15 04:50:33;;;;;;;11.83;10.93;;;16.20;99.90;;;;;;4961502;28;20484;-68
2021/09/15 04:53:00;;;;;;;11.30;10.27;;;16.10;99.90;;;;;;4960170;28;20519;-71
2021/09/15 04:55:29;;;;;;;11.33;10.23;;;16.20;99.90;;;;;;4963304;28;21018;-72
2021/09/15 04:57:55;;;;;;;12.07;10.67;;;16.10;99.90;;;;;;4953165;28;20563;-71
2021/09/15 05:00:22;;;;;;;11.40;10.30;;;16.10;99.90;;;;;;4961926;28;20778;-71
2021/09/15 05:02:49;;;;;;;11.53;10.00;;;16.10;99.90;;;;;;4960657;28;20858;-71
2021/09/15 05:05:15;;;;;;;11.60;10.50;;;16.10;99.90;;;;;;4965893;28;20523;-75
2021/09/15 05:07:43;;;;;;;10.97;9.90;;;16.10;99.90;;;;;;4962430;28;20539;-75
2021/09/15 05:10:10;;;;;;;11.03;10.00;;;16.10;99.90;;;;;;4956904;28;20524;-72
2021/09/15 05:12:37;;;;;;;11.17;10.17;;;16.10;99.90;;;;;;4959513;28;20476;-73
2021/09/15 05:15:05;;;;;;;11.60;10.50;;;16.10;99.90;;;;;;4976118;28;20557;-73
2021/09/15 05:17:32;;;;;;;10.50;9.60;;;16.10;99.90;;;;;;4964177;28;20527;-74
2021/09/15 05:19:58;;;;;;;12.17;11.07;;;16.10;99.90;;;;;;4976405;28;20456;-74
2021/09/15 05:22:25;;;;;;;11.40;10.30;;;16.10;99.90;;;;;;4973664;28;20615;-74
2021/09/15 05:24:53;;;;;;;11.40;10.23;;;16.10;99.90;;;;;;4957360;28;20456;-74
2021/09/15 05:27:20;;;;;;;12.47;11.30;;;16.10;99.90;;;;;;4965626;28;20539;-73
2021/09/15 05:29:47;;;;;;;11.90;10.70;;;16.10;99.90;;;;;;4956949;28;20894;-73
2021/09/15 05:32:13;;;;;;;10.90;10.00;;;16.10;99.90;;;;;;4957543;28;20476;-74
2021/09/15 05:34:40;;;;;;;11.10;10.17;;;16.10;99.90;;;;;;4975404;28;20784;-74
2021/09/15 05:37:07;;;;;;;11.30;10.27;;;16.00;99.90;;;;;;4975815;28;20524;-73
2021/09/15 05:39:33;;;;;;;12.37;11.20;;;16.10;99.90;;;;;;4957862;28;20531;-72
2021/09/15 05:42:01;;;;;;;11.03;10.00;;;16.10;99.90;;;;;;4956307;28;20480;-73
2021/09/15 05:44:28;;;;;;;11.03;9.93;;;16.10;99.90;;;;;;4957357;28;20460;-72
2021/09/15 05:46:55;;;;;;;12.33;11.17;;;16.10;99.90;;;;;;4956898;28;20468;-73
2021/09/15 05:49:21;;;;;;;10.53;9.63;;;16.10;99.90;;;;;;4962430;28;20464;-71
2021/09/15 05:51:48;;;;;;;11.23;10.33;;;16.10;99.90;;;;;;4963599;28;20542;-71
2021/09/15 05:54:15;;;;;;;12.27;11.03;;;16.10;99.90;;;;;;4961858;28;20484;-71
2021/09/15 05:56:42;;;;;;;13.00;10.67;;;16.20;99.90;;;;;;4958148;28;20936;-71
2021/09/15 05:59:10;;;;;;;11.20;10.27;;;16.20;99.90;;;;;;4968574;28;20549;-70
2021/09/15 06:01:36;;;;;;;14.73;10.67;;;16.20;99.90;;;;;;4973280;28;20495;-72
2021/09/15 06:04:04;;;;;;;11.43;10.33;;;16.20;99.90;;;;;;4976060;28;20876;-71
2021/09/15 06:06:30;;;;;;;10.47;9.53;;;16.30;99.90;;;;;;4959449;28;20456;-72
2021/09/15 06:08:57;;;;;;;10.33;9.50;;;16.30;99.90;;;;;;4967045;28;20522;-71
2021/09/15 06:11:23;;;;;;;10.50;9.50;;;16.30;99.90;;;;;;4967048;28;20888;-72
2021/09/15 06:13:50;;;;;;;11.30;10.30;;;16.30;99.90;;;;;;4956264;28;20468;-72
2021/09/15 06:16:18;;;;;;;11.40;9.77;;;16.30;99.90;;;;;;4962451;28;20492;-71
2021/09/15 06:18:45;;;;;;;11.07;9.97;;;16.30;99.90;;;;;;4955698;28;21019;-73
2021/09/15 06:21:12;;;;;;;12.57;11.53;;;16.30;99.90;;;;;;4954720;28;20476;-72
2021/09/15 06:23:38;;;;;;;10.67;9.57;;;16.40;99.90;;;;;;4957009;28;20572;-72
2021/09/15 06:26:05;;;;;;;11.30;10.27;;;16.40;99.90;;;;;;4955133;28;20477;-72
2021/09/15 06:28:32;;;;;;;11.00;9.90;;;16.40;99.90;;;;;;4973653;28;20518;-72
2021/09/15 06:31:01;;;;;;;11.10;10.27;;;16.40;99.90;;;;;;4971187;28;21039;-72
2021/09/15 06:33:29;;;;;;;10.50;9.53;;;16.40;99.90;;;;;;4970576;28;20459;-71
2021/09/15 06:35:56;;;;;;;12.30;11.20;;;16.40;99.90;;;;;;4955777;28;20496;-71
2021/09/15 06:38:23;;;;;;;11.30;10.30;;;16.40;99.90;;;;;;4964735;28;20825;-72
2021/09/15 06:40:49;;;;;;;12.70;11.55;;;16.50;99.90;;;;;;4954240;28;20475;-72
2021/09/15 06:43:16;;;;;;;12.40;11.20;;;16.50;99.90;;;;;;4955777;28;20271;-73
2021/09/15 06:45:43;;;;;;;10.77;9.60;;;16.50;99.90;;;;;;4957431;28;20481;-71
2021/09/15 06:48:10;;;;;;;10.93;10.07;;;16.50;99.90;;;;;;4964759;28;20464;-73
2021/09/15 06:50:38;;;;;;;10.57;9.67;;;16.60;99.90;;;;;;4959472;28;20555;-72
2021/09/15 06:53:04;;;;;;;11.57;10.67;;;16.50;99.90;;;;;;4969165;28;20534;-71
2021/09/15 06:55:31;;;;;;;17.83;12.53;;;16.60;99.90;;;;;;4962694;28;20542;-71
2021/09/15 06:57:57;;;;;;;12.00;10.80;;;16.60;99.90;;;;;;4973378;28;20546;-72
2021/09/15 07:00:24;;;;;;;11.77;10.80;;;16.60;99.90;;;;;;4966118;28;20461;-72
2021/09/15 07:02:51;;;;;;;12.20;11.07;;;16.60;99.90;;;;;;4982384;28;20472;-69
2021/09/15 07:05:17;;;;;;;11.00;10.00;;;16.70;99.90;;;;;;4968193;28;20457;-69
2021/09/15 07:07:45;;;;;;;11.47;10.37;;;16.60;99.90;;;;;;4971823;28;20526;-68
2021/09/15 07:10:12;;;;;;;12.47;11.37;;;16.60;99.90;;;;;;4960534;28;20599;-70
2021/09/15 07:12:40;;;;;;;12.50;11.40;;;16.60;99.90;;;;;;4962794;28;20815;-69
2021/09/15 07:15:08;;;;;;;13.00;11.70;;;16.60;99.90;;;;;;4956097;28;20489;-69
2021/09/15 07:17:35;;;;;;;13.27;12.00;;;16.60;99.90;;;;;;4972403;28;20471;-69
2021/09/15 07:20:02;;;;;;;13.53;12.20;;;16.60;99.90;;;;;;4956254;28;20497;-69
2021/09/15 07:22:29;;;;;;;14.63;13.30;;;16.50;99.90;;;;;;4955467;28;20484;-70
2021/09/15 07:24:57;;;;;;;13.57;12.37;;;16.60;99.90;;;;;;4967978;28;20506;-70
2021/09/15 07:27:23;;;;;;;13.73;12.33;;;16.70;99.90;;;;;;4958105;28;20531;-70
2021/09/15 07:29:50;;;;;;;13.97;12.67;;;16.70;99.90;;;;;;4963051;28;20472;-70
2021/09/15 07:32:17;;;;;;;14.20;12.80;;;16.70;99.90;;;;;;4966707;28;20542;-70
2021/09/15 07:34:45;;;;;;;15.67;14.03;;;16.80;99.90;;;;;;4973615;28;20491;-69
2021/09/15 07:37:12;;;;;;;14.73;13.17;;;16.80;99.90;;;;;;4957272;28;20471;-69
2021/09/15 07:39:38;;;;;;;19.63;13.03;;;16.80;99.90;;;;;;4964784;28;20884;-69
2021/09/15 07:42:07;;;;;;;15.23;13.67;;;16.90;99.90;;;;;;4970541;28;20477;-70
2021/09/15 07:44:35;;;;;;;13.27;11.97;;;17.00;99.90;;;;;;4960450;28;20453;-70
2021/09/15 07:47:01;;;;;;;13.43;12.23;;;17.10;99.90;;;;;;4968924;28;20518;-70
2021/09/15 07:49:28;;;;;;;13.50;12.40;;;17.10;99.90;;;;;;4959970;28;20798;-69
2021/09/15 07:51:55;;;;;;;13.97;12.60;;;17.20;99.90;;;;;;4961386;28;20467;-70
2021/09/15 07:54:21;;;;;;;12.73;11.17;;;17.30;99.90;;;;;;4960902;28;20472;-72
2021/09/15 07:56:48;;;;;;;12.30;11.27;;;17.30;99.90;;;;;;4956127;28;20464;-72
2021/09/15 07:59:16;;;;;;;14.40;13.00;;;17.30;99.90;;;;;;4959895;28;20523;-69
2021/09/15 08:01:43;;;;;;;14.00;12.80;;;17.30;99.90;;;;;;4973602;28;20554;-69
2021/09/15 08:04:09;;;;;;;13.37;12.37;;;17.40;99.90;;;;;;4973172;28;20463;-70
2021/09/15 08:06:36;;;;;;;13.70;12.50;;;17.40;99.90;;;;;;4973284;28;20924;-70
2021/09/15 08:09:03;;;;;;;14.00;12.77;;;17.50;99.90;;;;;;4973154;28;20468;-70
2021/09/15 08:11:29;;;;;;;12.17;11.10;;;17.50;99.90;;;;;;4972620;28;20524;-70
2021/09/15 08:13:57;;;;;;;12.17;11.07;;;17.50;99.90;;;;;;4973718;28;20468;-70
2021/09/15 08:16:25;;;;;;;12.40;11.40;;;17.60;99.90;;;;;;4970964;28;20495;-69
2021/09/15 08:18:52;;;;;;;12.40;11.10;;;17.60;99.90;;;;;;4972666;28;20470;-69
2021/09/15 08:21:18;;;;;;;12.57;11.47;;;17.60;99.90;;;;;;4971293;28;20522;-69
2021/09/15 08:23:45;;;;;;;12.00;10.93;;;17.70;99.90;;;;;;4972190;28;20533;-69
2021/09/15 08:26:12;;;;;;;12.17;11.23;;;17.70;99.90;;;;;;4972551;28;20460;-69
2021/09/15 08:28:39;;;;;;;13.57;11.97;;;17.70;99.90;;;;;;4973564;28;20472;-68
2021/09/15 08:31:06;;;;;;;12.87;11.73;;;17.80;99.90;;;;;;4971811;28;20528;-68
2021/09/15 08:33:34;;;;;;;12.80;11.70;;;17.80;99.90;;;;;;4967403;28;20543;-68
2021/09/15 08:36:01;;;;;;;12.47;11.03;;;18.00;99.90;;;;;;4968848;28;20580;-69
2021/09/15 08:38:27;;;;;;;12.33;11.23;;;18.10;99.90;;;;;;4973596;28;20467;-68
2021/09/15 08:40:55;;;;;;;12.83;11.73;;;18.20;99.90;;;;;;4968371;28;20495;-69
2021/09/15 08:43:22;;;;;;;13.40;12.20;;;18.30;99.90;;;;;;4958162;28;20469;-68
2021/09/15 08:45:49;;;;;;;12.97;11.93;;;18.30;99.90;;;;;;4958051;28;20570;-69
2021/09/15 08:48:19;;;;;;;13.00;11.57;;;18.40;99.90;;;;;;4973888;28;21042;-69
2021/09/15 08:50:49;;;;;;;12.10;11.10;;;18.40;99.90;;;;;;4969629;28;20491;-68
2021/09/15 08:53:16;;;;;;;13.50;12.13;;;18.40;99.90;;;;;;4954114;28;20835;-68
2021/09/15 08:55:46;;;;;;;13.50;12.20;;;18.40;99.90;;;;;;4956225;28;20857;-69
2021/09/15 08:58:13;;;;;;;12.40;11.40;;;18.40;99.90;;;;;;4956185;28;20499;-68
2021/09/15 09:00:39;;;;;;;12.73;11.77;;;18.50;99.90;;;;;;4974109;28;20546;-69
2021/09/15 09:03:06;;;;;;;13.40;12.10;;;18.60;99.90;;;;;;4972440;28;20522;-68
2021/09/15 09:05:33;;;;;;;12.67;11.60;;;18.60;99.90;;;;;;4973057;28;20456;-68
2021/09/15 09:08:01;;;;;;;13.00;11.97;;;18.60;99.90;;;;;;4964587;28;20871;-69
2021/09/15 09:10:33;;;;;;;12.70;11.70;;;18.70;99.90;;;;;;4972697;28;20491;-69
2021/09/15 09:12:59;;;;;;;12.00;11.10;;;18.70;99.90;;;;;;4969775;28;20456;-69
2021/09/15 09:15:28;;;;;;;12.83;11.83;;;18.60;99.90;;;;;;4973127;28;20550;-69
2021/09/15 09:17:58;;;;;;;13.10;11.80;;;18.70;99.90;;;;;;4955412;28;20477;-69
2021/09/15 09:20:28;;;;;;;12.43;11.23;;;18.80;99.90;;;;;;4953822;28;20480;-69
2021/09/15 09:23:09;;;;;;;12.90;11.70;;;18.90;99.90;;;;;;4963525;28;20522;-70
2021/09/15 09:25:39;;;;;;;12.53;11.50;;;18.90;99.90;;;;;;4972800;28;20491;-69
2021/09/15 09:28:24;;;;;;;12.97;11.90;;;18.90;99.90;;;;;;4967878;28;20538;-69
2021/09/15 09:30:52;;;;;;;13.43;12.37;;;18.80;99.90;;;;;;4967583;28;20976;-70
2021/09/15 09:33:19;;;;;;;12.73;11.43;;;18.80;99.90;;;;;;4953873;28;20460;-69
2021/09/15 09:35:47;;;;;;;14.13;12.93;;;18.80;99.90;;;;;;4953695;28;20771;-69
2021/09/15 09:38:24;;;;;;;14.88;13.48;;;18.70;99.90;;;;;;4952541;28;20911;-69
2021/09/15 09:41:08;;;;;;;12.90;12.00;;;18.80;99.90;;;;;;4961390;28;20228;-69
2021/09/15 09:43:36;;;;;;;12.80;11.60;;;18.80;99.90;;;;;;4971491;28;20566;-70
2021/09/15 09:46:06;;;;;;;14.27;12.87;;;18.90;99.90;;;;;;4966991;28;20889;-68
2021/09/15 09:48:35;;;;;;;14.10;12.70;;;18.90;99.90;;;;;;4954870;28;20479;-68
2021/09/15 09:51:04;;;;;;;15.23;13.70;;;18.90;99.90;;;;;;4968733;28;20488;-68
2021/09/15 09:53:32;;;;;;;14.50;13.20;;;18.90;99.90;;;;;;4975679;28;20484;-68
2021/09/15 09:55:59;;;;;;;15.00;13.60;;;18.90;99.90;;;;;;4956083;28;20492;-68
2021/09/15 09:58:28;;;;;;;14.13;13.07;;;18.80;99.90;;;;;;4971112;28;20555;-69
2021/09/15 10:00:56;;;;;;;13.57;12.37;;;18.80;99.90;;;;;;4973631;28;20571;-69
2021/09/15 10:03:24;;;;;;;15.63;14.17;;;18.70;99.90;;;;;;4976569;28;20467;-69
2021/09/15 10:05:51;;;;;;;15.20;13.77;;;18.60;99.90;;;;;;4974354;28;20459;-69
2021/09/15 10:08:20;;;;;;;15.70;14.17;;;18.60;99.90;;;;;;4976141;28;20463;-69
2021/09/15 10:10:50;;;;;;;15.63;14.40;;;18.50;99.90;;;;;;4958077;28;20572;-69
2021/09/15 10:13:18;;;;;;;16.67;15.10;;;18.40;99.90;;;;;;4956361;28;20476;-69
2021/09/15 10:15:52;;;;;;;16.33;14.73;;;18.30;99.90;;;;;;4972832;28;20840;-69
2021/09/15 10:18:19;;;;;;;16.20;14.60;;;18.30;99.90;;;;;;4971472;28;20456;-69
2021/09/15 10:20:49;;;;;;;15.83;14.47;;;18.20;99.90;;;;;;4975879;28;20546;-69
2021/09/15 10:23:40;;;;;;;15.23;13.83;;;18.20;99.90;;;;;;4975558;28;20538;-69
2021/09/15 10:26:39;;;;;;;15.93;13.70;;;18.20;99.90;;;;;;4974658;28;20460;-69
2021/09/15 10:29:29;;;;;;;16.43;15.00;;;18.20;99.90;;;;;;4952667;28;20452;-69
2021/09/15 10:32:08;;;;;;;14.30;12.93;;;18.20;99.90;;;;;;4962410;28;20480;-69
2021/09/15 10:34:51;;;;;;;15.73;14.13;;;18.20;99.90;;;;;;4965226;28;20651;-68
2021/09/15 10:37:53;;;;;;;14.67;13.47;;;18.20;99.90;;;;;;4960275;28;20484;-68
2021/09/15 10:40:41;;;;;;;14.73;13.53;;;18.20;99.90;;;;;;4970242;28;20459;-68
2021/09/15 10:43:50;;;;;;;14.33;12.90;;;18.30;99.90;;;;;;4956496;28;20472;-68
2021/09/15 10:46:23;;;;;;;14.03;12.83;;;18.30;99.90;;;;;;4959833;28;20515;-70
2021/09/15 10:49:30;;;;;;;16.23;13.97;;;18.40;99.90;;;;;;4956191;28;20980;-69
2021/09/15 10:52:28;;;;;;;13.50;12.30;;;18.40;99.90;;;;;;4970080;28;20487;-75
2021/09/15 10:54:57;;;;;;;13.43;12.43;;;18.50;99.90;;;;;;4971776;28;20455;-69
2021/09/15 10:57:31;;;;;;;14.20;12.80;;;18.50;99.90;;;;;;4972866;28;20495;-69
2021/09/15 11:00:00;;;;;;;13.50;12.27;;;18.60;99.90;;;;;;4964056;28;20526;-69
2021/09/15 11:02:30;;;;;;;13.10;11.90;;;18.60;99.90;;;;;;4966780;28;20532;-69
2021/09/15 11:04:58;;;;;;;12.87;11.67;;;18.60;99.90;;;;;;4955494;28;20473;-69
2021/09/15 11:08:00;;;;;;;15.63;12.40;;;18.60;99.90;;;;;;4961914;28;20468;-69
2021/09/15 11:10:37;;;;;;;13.90;12.70;;;18.60;99.90;;;;;;4970012;28;20483;-69
2021/09/15 11:13:05;;;;;;;13.87;12.57;;;18.70;99.90;;;;;;4963566;28;20531;-69
2021/09/15 11:15:33;;;;;;;15.17;13.70;;;18.70;99.90;;;;;;4955552;28;20473;-69
2021/09/15 11:18:01;;;;;;;15.47;14.00;;;18.70;99.90;;;;;;4960167;28;20535;-69
2021/09/15 11:20:31;;;;;;;14.47;13.00;;;18.70;99.90;;;;;;4972856;28;20484;-69
2021/09/15 11:23:02;;;;;;;14.07;12.87;;;18.70;99.90;;;;;;4971834;28;20956;-69
2021/09/15 11:25:29;;;;;;;14.53;13.23;;;18.70;99.90;;;;;;4974290;28;20511;-69
2021/09/15 11:28:05;;;;;;;14.73;13.40;;;18.70;99.90;;;;;;4974038;28;21023;-69
2021/09/15 11:30:32;;;;;;;14.67;13.17;;;18.70;99.90;;;;;;4974482;28;20620;-69
2021/09/15 11:33:00;;;;;;;15.50;13.90;;;18.70;99.90;;;;;;4974403;28;20472;-68
2021/09/15 11:35:27;;;;;;;15.17;13.63;;;18.70;99.90;;;;;;4974135;28;20487;-68
2021/09/15 11:37:54;;;;;;;14.37;13.07;;;18.60;99.90;;;;;;4974703;28;20468;-68
2021/09/15 11:40:28;;;;;;;15.30;13.70;;;18.60;99.90;;;;;;4972109;28;20487;-67
2021/09/15 11:42:55;;;;;;;16.83;15.30;;;18.50;99.90;;;;;;4973798;28;20472;-68
2021/09/15 11:45:23;;;;;;;16.97;15.13;;;18.40;99.90;;;;;;4974033;28;20472;-68
2021/09/15 11:47:52;;;;;;;16.90;15.30;;;18.40;99.90;;;;;;4974423;28;20466;-68
2021/09/15 11:50:22;;;;;;;17.17;15.57;;;18.30;99.90;;;;;;4973911;28;20468;-68
2021/09/15 11:52:53;;;;;;;18.27;16.47;;;18.30;99.90;;;;;;4973708;28;20535;-68
2021/09/15 11:55:20;;;;;;;18.97;17.07;;;18.30;99.90;;;;;;4967381;28;20559;-68
2021/09/15 11:57:48;;;;;;;18.53;16.40;;;18.20;99.90;;;;;;4954118;28;20496;-68
2021/09/15 12:00:16;;;;;;;18.50;16.20;;;18.20;99.90;;;;;;4965490;28;20469;-69
2021/09/15 12:02:46;;;;;;;19.70;17.70;;;18.10;99.90;;;;;;4973329;28;20452;-69
2021/09/15 12:05:13;;;;;;;22.13;18.67;;;18.10;99.90;;;;;;4966506;28;20840;-69
2021/09/15 12:07:43;;;;;;;19.40;17.50;;;18.00;99.90;;;;;;4955910;28;21265;-70
2021/09/15 12:10:12;;;;;;;19.67;17.50;;;18.00;99.90;;;;;;4963818;28;20492;-70
2021/09/15 12:12:39;;;;;;;23.90;19.10;;;17.90;99.90;;;;;;4957625;28;20456;-70
2021/09/15 12:15:08;;;;;;;21.20;18.77;;;17.90;99.90;;;;;;4961039;28;20459;-70
2021/09/15 12:17:35;;;;;;;22.17;19.87;;;17.90;99.90;;;;;;4973453;28;20852;-69
2021/09/15 12:20:02;;;;;;;21.30;19.00;;;17.90;99.90;;;;;;4967321;28;20844;-69
2021/09/15 12:22:31;;;;;;;21.93;19.67;;;17.90;99.90;;;;;;4958370;28;20543;-68
2021/09/15 12:25:02;;;;;;;21.80;19.37;;;17.90;99.90;;;;;;4954061;28;20488;-69
2021/09/15 12:27:29;;;;;;;22.97;19.07;;;17.90;99.90;;;;;;4954681;28;20519;-71
2021/09/15 12:30:05;;;;;;;25.20;19.90;;;17.90;99.90;;;;;;4963438;28;20609;-70
2021/09/15 12:32:34;;;;;;;21.90;18.90;;;17.90;99.90;;;;;;4953392;28;21004;-70
2021/09/15 12:35:01;;;;;;;21.60;19.30;;;17.90;99.90;;;;;;4958452;28;20929;-69
2021/09/15 12:37:36;;;;;;;20.90;18.40;;;17.80;99.90;;;;;;4968250;28;20484;-70
2021/09/15 12:40:04;;;;;;;24.03;21.33;;;17.80;99.90;;;;;;4956213;28;20827;-70
2021/09/15 12:42:34;;;;;;;26.40;21.53;;;17.80;99.90;;;;;;4955976;28;20544;-69
2021/09/15 12:45:03;;;;;;;24.57;21.97;;;17.80;99.90;;;;;;4954134;28;20535;-69
2021/09/15 12:47:34;;;;;;;27.23;23.23;;;17.80;99.90;;;;;;4956454;28;20928;-71
2021/09/15 12:50:04;;;;;;;27.33;22.70;;;17.80;99.90;;;;;;4953756;28;20464;-71
2021/09/15 12:52:31;;;;;;;25.63;22.23;;;17.80;99.90;;;;;;4953724;28;20567;-71
2021/09/15 12:55:00;;;;;;;27.40;24.50;;;17.80;99.90;;;;;;4952887;28;20531;-71
2021/09/15 12:57:29;;;;;;;27.50;23.87;;;17.90;99.90;;;;;;4961854;28;20476;-71
2021/09/15 13:00:17;;;;;;;28.03;23.47;;;17.90;99.90;;;;;;4968028;28;20478;-71
2021/09/15 13:02:51;;;;;;;29.53;23.80;;;17.90;99.90;;;;;;4970229;28;20471;-71
2021/09/15 13:05:19;;;;;;;30.00;23.80;;;18.00;99.90;;;;;;4963789;28;20451;-71
2021/09/15 13:07:45;;;;;;;28.13;24.20;;;18.00;99.90;;;;;;4963889;28;20465;-70
2021/09/15 13:10:12;;;;;;;26.33;23.17;;;18.00;99.90;;;;;;4954370;28;20859;-70
2021/09/15 13:12:40;;;;;;;30.30;23.83;;;18.00;99.90;;;;;;4952012;28;20460;-69
2021/09/15 13:15:08;;;;;;;26.40;23.03;;;17.90;99.90;;;;;;4957003;28;20503;-70
2021/09/15 13:17:35;;;;;;;30.00;24.63;;;17.90;99.90;;;;;;4971140;28;20554;-70
2021/09/15 13:20:02;;;;;;;28.27;23.10;;;17.80;99.90;;;;;;4966874;28;20468;-70
2021/09/15 13:22:29;;;;;;;30.20;25.10;;;17.80;99.90;;;;;;4972708;28;20491;-70
2021/09/15 13:24:56;;;;;;;29.80;25.23;;;17.80;99.90;;;;;;4963552;28;20554;-73
2021/09/15 13:27:22;;;;;;;32.43;26.83;;;17.80;99.90;;;;;;4976116;28;20801;-73
2021/09/15 13:29:50;;;;;;;29.03;24.37;;;17.80;99.90;;;;;;4975743;28;20472;-73
2021/09/15 13:32:17;;;;;;;32.57;24.17;;;17.70;99.90;;;;;;4964576;28;20558;-73
2021/09/15 13:34:44;;;;;;;34.77;27.47;;;17.70;99.90;;;;;;4972141;28;20460;-74
2021/09/15 13:37:10;;;;;;;35.53;27.13;;;17.70;99.90;;;;;;4957617;28;20487;-73
2021/09/15 13:39:38;;;;;;;34.27;26.73;;;17.70;99.90;;;;;;4960360;28;20471;-73
2021/09/15 13:42:05;;;;;;;32.90;25.63;;;17.70;99.90;;;;;;4975707;28;20483;-73
2021/09/15 13:44:32;;;;;;;35.30;26.80;;;17.70;99.90;;;;;;4971864;28;20465;-73
2021/09/15 13:47:00;;;;;;;32.03;24.00;;;17.70;99.90;;;;;;4973868;28;20555;-71
2021/09/15 13:49:27;;;;;;;0.63;0.63;;;17.70;99.90;;;;;;4961566;28;20611;-73
2021/09/15 13:51:54;;;;;;;0.30;0.30;;;17.70;99.90;;;;;;4957695;28;20500;-72
2021/09/15 13:54:21;;;;;;;0.80;0.80;;;17.70;99.90;;;;;;4956460;28;20617;-73
2021/09/15 13:56:47;;;;;;;1.17;1.07;;;17.60;99.90;;;;;;4966824;28;20945;-73
2021/09/15 13:59:14;;;;;;;0.10;0.10;;;17.60;99.90;;;;;;4976370;28;20471;-72
2021/09/15 14:01:41;;;;;;;1.00;0.97;;;17.70;99.90;;;;;;4967867;28;20999;-73
2021/09/15 14:04:08;;;;;;;0.10;0.10;;;17.70;99.90;;;;;;4971078;28;20542;-74
2021/09/15 14:06:35;;;;;;;0.33;0.33;;;17.60;99.90;;;;;;4976503;28;20459;-74
2021/09/15 14:09:02;;;;;;;0.10;0.10;;;17.60;99.90;;;;;;4971977;28;20980;-74
2021/09/15 14:11:29;;;;;;;0.20;0.20;;;17.60;99.90;;;;;;4974119;28;20491;-74
2021/09/15 14:13:55;;;;;;;0.30;0.30;;;17.60;99.90;;;;;;4968632;28;20924;-74
2021/09/15 14:16:22;;;;;;;0.60;0.60;;;17.60;99.90;;;;;;4974895;28;20531;-72
2021/09/15 14:18:48;;;;;;;2.60;0.90;;;17.60;99.90;;;;;;4975486;28;20944;-74
2021/09/15 14:21:16;;;;;;;0.10;0.10;;;17.60;99.90;;;;;;4970702;28;20487;-74
2021/09/15 14:23:43;;;;;;;0.20;0.20;;;17.60;99.90;;;;;;4966552;28;20469;-74
2021/09/15 14:26:10;;;;;;;0.10;0.10;;;17.60;99.90;;;;;;4954958;28;20476;-74
2021/09/15 14:28:37;;;;;;;0.20;0.20;;;17.60;99.90;;;;;;4959857;28;20548;-74
2021/09/15 14:31:04;;;;;;;0.33;0.33;;;17.60;99.90;;;;;;4967778;28;20484;-73
2021/09/15 14:33:30;;;;;;;0.10;0.10;;;17.60;99.90;;;;;;4968465;28;20813;-73
2021/09/15 14:35:57;;;;;;;0.33;0.33;;;17.60;99.90;;;;;;4967868;28;20468;-73
2021/09/15 14:38:25;;;;;;;0.10;0.10;;;17.70;99.90;;;;;;4964149;28;20492;-73
2021/09/15 14:40:52;;;;;;;0.10;0.10;;;17.70;99.90;;;;;;4970431;28;20910;-73
2021/09/15 14:43:19;;;;;;;0.60;0.60;;;17.80;99.90;;;;;;4974112;28;20555;-73
2021/09/15 14:45:45;;;;;;;0.10;0.10;;;17.80;99.90;;;;;;4955544;28;20469;-74
2021/09/15 14:48:12;;;;;;;0.10;0.10;;;17.80;99.90;;;;;;4966097;28;20534;-73
2021/09/15 14:50:38;;;;;;;0.10;0.10;;;17.80;99.90;;;;;;4967413;28;20562;-73
2021/09/15 14:53:05;;;;;;;0.73;0.73;;;17.80;99.90;;;;;;4972193;28;20472;-74
2021/09/15 14:55:33;;;;;;;0.10;0.10;;;17.80;99.90;;;;;;4974627;28;20493;-73
2021/09/15 14:58:00;;;;;;;0.27;0.27;;;17.80;99.90;;;;;;4968175;28;20481;-74
2021/09/15 15:00:27;;;;;;;0.60;0.60;;;17.80;99.90;;;;;;4968076;28;20500;-74
2021/09/15 15:02:53;;;;;;;0.97;0.97;;;17.90;99.90;;;;;;4973835;28;20460;-74
2021/09/15 15:05:20;;;;;;;0.17;0.17;;;17.90;99.90;;;;;;4974619;28;20518;-74
2021/09/15 15:07:47;;;;;;;0.10;0.10;;;17.90;99.90;;;;;;4973937;28;20506;-74
2021/09/15 15:10:17;;;;;;;0.10;0.10;;;18.00;99.90;;;;;;4957743;28;20461;-74
2021/09/15 15:12:45;;;;;;;0.10;0.10;;;18.00;99.90;;;;;;4973820;28;20563;-73
2021/09/15 15:15:13;;;;;;;0.77;0.77;;;18.00;99.90;;;;;;4970119;28;20476;-72
2021/09/15 15:17:40;;;;;;;0.10;0.10;;;18.10;99.90;;;;;;4956839;28;21025;-73
2021/09/15 15:20:09;;;;;;;0.53;0.53;;;18.10;99.90;;;;;;4957673;28;20460;-72
2021/09/15 15:22:36;;;;;;;0.67;0.67;;;18.00;99.90;;;;;;4955349;28;20473;-71
2021/09/15 15:25:06;;;;;;;0.10;0.10;;;18.00;99.90;;;;;;4965100;28;20518;-73
2021/09/15 15:27:34;;;;;;;0.20;0.20;;;18.00;99.90;;;;;;4970726;28;20530;-73
2021/09/15 15:30:02;;;;;;;0.10;0.10;;;18.00;99.90;;;;;;4969662;28;20460;-73
2021/09/15 15:32:30;;;;;;;0.50;0.50;;;18.00;99.90;;;;;;4971040;28;20491;-73
2021/09/15 15:34:57;;;;;;;0.10;0.10;;;18.00;99.90;;;;;;4955452;28;20465;-73
2021/09/15 15:37:24;;;;;;;0.20;0.20;;;18.10;99.90;;;;;;4955277;28;20492;-73
2021/09/15 15:39:51;;;;;;;0.10;0.10;;;18.10;99.90;;;;;;4963041;28;20491;-72
2021/09/15 15:42:18;;;;;;;0.10;0.10;;;18.20;99.90;;;;;;4967768;28;20484;-73
2021/09/15 15:44:45;;;;;;;0.73;0.53;;;18.10;99.90;;;;;;4970077;28;20904;-74
2021/09/15 15:47:13;;;;;;;0.10;0.10;;;18.10;99.90;;;;;;4959850;28;20531;-73
2021/09/15 15:49:40;;;;;;;0.20;0.20;;;18.10;99.90;;;;;;4961563;28;21023;-73
2021/09/15 15:52:08;;;;;;;0.10;0.10;;;18.10;99.90;;;;;;4965708;28;20475;-72
2021/09/15 15:54:34;;;;;;;0.60;0.60;;;18.10;99.90;;;;;;4971982;28;20475;-72
2021/09/15 15:57:01;;;;;;;0.53;0.53;;;18.10;99.90;;;;;;4967844;28;20486;-72
2021/09/15 15:59:27;;;;;;;0.30;0.30;;;18.10;99.90;;;;;;4958527;28;20517;-72
2021/09/15 16:01:54;;;;;;;0.20;0.20;;;18.10;99.90;;;;;;4964731;28;20499;-73
2021/09/15 16:04:22;;;;;;;1.37;1.37;;;18.10;99.90;;;;;;4964958;28;20534;-72
2021/09/15 16:06:49;;;;;;;0.10;0.10;;;18.20;99.90;;;;;;4972220;28;20872;-72
2021/09/15 16:09:16;;;;;;;0.53;0.53;;;18.10;99.90;;;;;;4956744;28;20468;-72
2021/09/15 16:11:43;;;;;;;1.90;1.90;;;18.10;99.90;;;;;;4972372;28;20500;-72
2021/09/15 16:14:10;;;;;;;0.20;0.20;;;18.10;99.90;;;;;;4962466;28;20522;-72
2021/09/15 16:16:40;;;;;;;1.20;1.20;;;18.10;99.90;;;;;;4970143;28;20460;-70
2021/09/15 16:19:06;;;;;;;0.67;0.67;;;18.10;99.90;;;;;;4973875;28;20491;-70
2021/09/15 16:21:34;;;;;;;0.10;0.10;;;18.10;99.90;;;;;;4956300;28;20516;-70
2021/09/15 16:24:01;;;;;;;1.80;1.70;;;18.10;99.90;;;;;;4953608;28;20584;-71
2021/09/15 16:26:28;;;;;;;0.10;0.10;;;18.10;99.90;;;;;;4961229;28;20468;-70
2021/09/15 16:28:55;;;;;;;0.10;0.10;;;18.10;99.90;;;;;;4954933;28;20457;-70
2021/09/15 16:31:21;;;;;;;5.57;5.00;;;18.10;99.90;;;;;;4954951;28;20492;-70
2021/09/15 16:33:49;;;;;;;0.30;0.30;;;18.10;99.90;;;;;;4969555;28;20468;-70
2021/09/15 16:36:15;;;;;;;0.83;0.83;;;18.10;99.90;;;;;;4959604;28;20485;-70
2021/09/15 16:38:43;;;;;;;0.10;0.10;;;18.10;99.90;;;;;;4957657;28;20485;-71
2021/09/15 16:41:10;;;;;;;0.50;0.50;;;18.10;99.90;;;;;;4953829;28;20476;-70
2021/09/15 16:43:37;;;;;;;0.17;0.17;;;18.10;99.90;;;;;;4963395;28;20539;-68
2021/09/15 16:46:03;;;;;;;0.40;0.40;;;18.10;99.90;;;;;;4954776;28;20873;-70
2021/09/15 16:48:30;;;;;;;0.30;0.30;;;18.10;99.90;;;;;;4954042;28;20508;-70